METAR Formatted Surface Weather Observation
Issued by NWS

Home | Current Version | Previous Version | Text Only | Print | Product List | Glossary On
Versions: 1 2
000
SAHW31 PHFO 242356
MTRMKK
METAR PHMK 242354Z 05018G27KT 10SM SCT020 BKN039 BKN050 26/20 A3000
RMK AO2 PK WND 05027/2353 SLP160 60000 T02610200 10261 20206 58026



USA.gov is the U.S. government's official web portal to all federal, state and local government web resources and services.